Time;durP1;ratioP1;P1;durP2;ratioP2;P2;SDS_P1;SDS_P2;PMS_P1;PMS_P2;Temp;Humidity;BMP_temperature;BMP_pressure;BME280_temperature;BME280_humidity;BME280_pressure;Samples;Min_cycle;Max_cycle;Signal;HPM_P1;HPM_P2
2022/07/28 00:00:00;;;;;;;;;;;;;;;22.07;45.29;101616.97;7281670;19;151982;-69
2022/07/28 00:02:27;;;;;;;;;;;;;;;22.04;45.06;101629.66;7281312;19;154235;-69
2022/07/28 00:04:54;;;;;;;;;;;;;;;22.03;45.22;101618.72;7277158;19;153499;-69
2022/07/28 00:07:21;;;;;;;;;;;;;;;22.04;45.00;101626.00;7281580;19;152787;-69
2022/07/28 00:09:47;;;;;;;;;;;;;;;22.03;45.02;101627.16;7286783;19;152019;-69
2022/07/28 00:12:14;;;;;;;;;;;;;;;22.04;45.16;101617.56;7282158;19;151726;-69
2022/07/28 00:14:41;;;;;;;;;;;;;;;22.03;45.47;101619.53;7281520;19;155183;-69
2022/07/28 00:17:08;;;;;;;;;;;;;;;22.09;45.40;101617.47;7281654;19;153819;-69
2022/07/28 00:19:35;;;;;;;;;;;;;;;22.03;44.97;101618.72;7278473;19;152152;-70
2022/07/28 00:22:01;;;;;;;;;;;;;;;22.03;45.14;101621.53;7285908;19;153375;-68
2022/07/28 00:24:30;;;;;;;;;;;;;;;22.06;45.12;101615.28;7285214;19;152733;-68
2022/07/28 00:26:57;;;;;;;;;;;;;;;22.08;45.42;101619.47;7288452;19;151990;-69
2022/07/28 00:29:24;;;;;;;;;;;;;;;22.08;45.35;101618.63;7286815;19;151858;-69
2022/07/28 00:32:10;;;;;;;;;;;;;;;22.04;45.03;101618.38;7293664;19;157083;-69
2022/07/28 00:34:37;;;;;;;;;;;;;;;22.14;45.26;101615.44;7286334;19;152378;-68
2022/07/28 00:37:07;;;;;;;;;;;;;;;22.05;45.52;101616.41;7287168;19;153980;-69
2022/07/28 00:39:38;;;;;;;;;;;;;;;22.00;45.26;101614.50;7285701;19;152539;-70
2022/07/28 00:42:05;;;;;;;;;;;;;;;22.01;45.45;101610.56;7287410;19;153497;-68
2022/07/28 00:44:32;;;;;;;;;;;;;;;22.00;45.57;101610.84;7286070;19;152137;-70
2022/07/28 00:46:58;;;;;;;;;;;;;;;21.98;45.43;101608.38;7288462;19;154556;-69
2022/07/28 00:49:25;;;;;;;;;;;;;;;22.08;45.30;101598.91;7285843;19;152657;-69
2022/07/28 00:51:53;;;;;;;;;;;;;;;22.10;45.30;101603.13;7286124;19;154252;-69
2022/07/28 00:54:19;;;;;;;;;;;;;;;22.10;45.46;101593.84;7294008;19;154314;-69
2022/07/28 00:56:46;;;;;;;;;;;;;;;22.09;45.30;101598.63;7286536;19;153298;-70
2022/07/28 00:59:13;;;;;;;;;;;;;;;22.02;45.97;101591.72;7288371;19;152564;-69
2022/07/28 01:01:39;;;;;;;;;;;;;;;22.04;45.55;101593.06;7286133;19;153595;-69
2022/07/28 01:04:06;;;;;;;;;;;;;;;22.00;45.87;101591.16;7281678;19;153705;-69
2022/07/28 01:06:33;;;;;;;;;;;;;;;22.02;46.19;101591.72;7285683;19;151891;-69
2022/07/28 01:09:02;;;;;;;;;;;;;;;22.03;45.83;101599.81;7283727;19;152097;-69
2022/07/28 01:11:30;;;;;;;;;;;;;;;21.97;46.15;101592.63;7284668;19;153954;-68
2022/07/28 01:13:57;;;;;;;;;;;;;;;22.02;45.98;101588.91;7287122;19;152778;-69
2022/07/28 01:16:26;;;;;;;;;;;;;;;22.09;45.71;101586.53;7291699;19;154057;-69
2022/07/28 01:19:00;;;;;;;;;;;;;;;22.02;46.06;101591.72;7279225;19;152704;-69
2022/07/28 01:21:31;;;;;;;;;;;;;;;22.06;46.01;101592.78;7286184;19;153275;-69
2022/07/28 01:24:11;;;;;;;;;;;;;;;22.00;46.12;101589.19;7282720;19;153760;-69
2022/07/28 01:26:52;;;;;;;;;;;;;;;22.02;46.48;101586.91;7286700;19;151846;-69
2022/07/28 01:29:22;;;;;;;;;;;;;;;22.03;46.11;101577.31;7286610;19;152383;-69
2022/07/28 01:32:00;;;;;;;;;;;;;;;21.99;46.44;101583.84;7286755;19;153604;-69
2022/07/28 01:34:29;;;;;;;;;;;;;;;21.97;46.45;101581.38;7280112;19;152133;-69
2022/07/28 01:37:06;;;;;;;;;;;;;;;22.00;46.36;101566.69;7291050;19;155020;-69
2022/07/28 01:39:34;;;;;;;;;;;;;;;22.07;46.57;101566.31;7284817;19;152831;-69
2022/07/28 01:42:01;;;;;;;;;;;;;;;21.94;46.77;101572.69;7286981;19;152661;-68
2022/07/28 01:44:29;;;;;;;;;;;;;;;22.02;46.53;101563.56;7281732;19;153228;-69
2022/07/28 01:46:56;;;;;;;;;;;;;;;21.93;46.72;101565.38;7284156;19;152788;-69
2022/07/28 01:49:25;;;;;;;;;;;;;;;22.02;46.83;101566.38;7282565;19;153721;-69
2022/07/28 01:51:53;;;;;;;;;;;;;;;21.94;47.14;101561.44;7285550;19;154884;-69
2022/07/28 01:54:23;;;;;;;;;;;;;;;21.98;47.21;101554.91;7284878;19;152148;-68
2022/07/28 01:56:51;;;;;;;;;;;;;;;21.96;46.88;101551.53;7286361;19;153090;-69
2022/07/28 01:59:20;;;;;;;;;;;;;;;22.03;47.26;101551.19;7290998;19;154369;-69
2022/07/28 02:01:47;;;;;;;;;;;;;;;21.93;47.42;101548.50;7286200;19;152384;-69
2022/07/28 02:04:17;;;;;;;;;;;;;;;21.92;47.24;101546.78;7279387;19;155178;-69
2022/07/28 02:06:45;;;;;;;;;;;;;;;21.94;47.13;101553.00;7284845;19;151612;-68
2022/07/28 02:09:13;;;;;;;;;;;;;;;21.94;47.28;101541.75;7285510;19;153304;-69
2022/07/28 02:11:40;;;;;;;;;;;;;;;21.95;47.39;101540.56;7284295;19;154096;-68
2022/07/28 02:14:07;;;;;;;;;;;;;;;21.99;47.38;101542.47;7284975;19;153760;-69
2022/07/28 02:16:34;;;;;;;;;;;;;;;21.95;47.45;101534.94;7285582;19;152687;-69
2022/07/28 02:19:01;;;;;;;;;;;;;;;21.98;47.52;101534.38;7280763;19;154025;-68
2022/07/28 02:21:30;;;;;;;;;;;;;;;22.01;47.34;101539.38;7292300;19;151795;-69
2022/07/28 02:23:57;;;;;;;;;;;;;;;21.97;47.80;101539.16;7281270;19;152531;-69
2022/07/28 02:26:31;;;;;;;;;;;;;;;21.95;47.57;101543.41;7285163;19;152222;-69
2022/07/28 02:29:00;;;;;;;;;;;;;;;21.94;47.78;101539.75;7281890;19;153024;-69
2022/07/28 02:31:30;;;;;;;;;;;;;;;21.92;48.03;101532.72;7284900;19;153268;-69
2022/07/28 02:33:59;;;;;;;;;;;;;;;21.96;47.74;101534.66;7282348;19;152302;-71
2022/07/28 02:36:31;;;;;;;;;;;;;;;21.99;47.78;101524.75;7283324;19;152553;-69
2022/07/28 02:39:06;;;;;;;;;;;;;;;21.92;47.68;101532.72;7283125;19;154793;-68
2022/07/28 02:41:35;;;;;;;;;;;;;;;21.91;48.19;101529.06;7282782;19;151978;-69
2022/07/28 02:44:06;;;;;;;;;;;;;;;21.89;48.06;101514.50;7289136;19;152640;-69
2022/07/28 02:46:37;;;;;;;;;;;;;;;21.90;48.19;101520.91;7281903;19;152081;-69
2022/07/28 02:49:08;;;;;;;;;;;;;;;21.95;47.89;101518.06;7282165;19;154855;-69
2022/07/28 02:51:36;;;;;;;;;;;;;;;21.94;47.82;101522.06;7282346;19;152748;-69
2022/07/28 02:54:03;;;;;;;;;;;;;;;21.97;47.78;101521.44;7282490;19;152810;-68
2022/07/28 02:56:30;;;;;;;;;;;;;;;21.93;48.07;101511.94;7283186;19;152284;-68
2022/07/28 02:58:57;;;;;;;;;;;;;;;21.90;47.95;101515.28;7282950;19;155276;-69
2022/07/28 03:01:25;;;;;;;;;;;;;;;21.96;47.83;101514.13;7284171;19;152133;-69
2022/07/28 03:03:52;;;;;;;;;;;;;;;22.01;48.22;101514.03;7279543;19;152746;-69
2022/07/28 03:06:22;;;;;;;;;;;;;;;21.93;47.93;101523.19;7288087;19;153538;-69
2022/07/28 03:08:54;;;;;;;;;;;;;;;22.02;48.09;101515.72;7284439;19;153743;-68
2022/07/28 03:11:21;;;;;;;;;;;;;;;21.94;48.35;101517.22;7283196;19;153702;-70
2022/07/28 03:13:48;;;;;;;;;;;;;;;21.99;48.29;101516.31;7284888;19;153414;-69
2022/07/28 03:16:14;;;;;;;;;;;;;;;21.95;48.39;101518.91;7284090;19;152606;-69
2022/07/28 03:18:41;;;;;;;;;;;;;;;21.94;48.29;101516.41;7279390;19;154353;-69
2022/07/28 03:21:08;;;;;;;;;;;;;;;21.92;48.14;101518.66;7284173;19;152487;-69
2022/07/28 03:23:46;;;;;;;;;;;;;;;21.97;48.47;101513.84;7282793;19;152993;-69
2022/07/28 03:26:20;;;;;;;;;;;;;;;21.94;48.49;101513.59;7281190;19;154468;-69
2022/07/28 03:28:47;;;;;;;;;;;;;;;21.93;48.28;101507.13;7291942;19;152111;-69
2022/07/28 03:31:14;;;;;;;;;;;;;;;22.02;48.43;101512.91;7282921;19;154318;-69
2022/07/28 03:33:41;;;;;;;;;;;;;;;21.96;48.63;101514.13;7280944;19;152734;-69
2022/07/28 03:36:11;;;;;;;;;;;;;;;21.91;48.83;101511.34;7282423;19;152520;-69
2022/07/28 03:38:55;;;;;;;;;;;;;;;21.91;48.70;101520.63;7279878;19;153874;-69
2022/07/28 03:41:24;;;;;;;;;;;;;;;21.92;48.75;101522.31;7282847;19;152266;-69
2022/07/28 03:43:51;;;;;;;;;;;;;;;21.91;48.67;101511.34;7281864;19;152229;-69
2022/07/28 03:46:20;;;;;;;;;;;;;;;21.95;48.60;101520.88;7281151;19;152296;-69
2022/07/28 03:48:47;;;;;;;;;;;;;;;21.96;48.77;101523.41;7286132;19;153100;-70
2022/07/28 03:51:13;;;;;;;;;;;;;;;21.92;48.70;101521.47;7279559;19;154031;-69
2022/07/28 03:53:40;;;;;;;;;;;;;;;21.92;48.77;101516.69;7281826;19;152383;-69
2022/07/28 03:56:07;;;;;;;;;;;;;;;21.90;49.25;101523.72;7284049;19;153205;-69
2022/07/28 03:58:34;;;;;;;;;;;;;;;21.91;48.97;101522.59;7289025;19;153441;-70
2022/07/28 04:01:01;;;;;;;;;;;;;;;21.89;49.18;101522.09;7289946;19;152198;-69
2022/07/28 04:03:29;;;;;;;;;;;;;;;21.91;49.46;101519.78;7286157;19;153644;-69
2022/07/28 04:06:12;;;;;;;;;;;;;;;21.95;49.06;101509.63;7287419;19;152431;-69
2022/07/28 04:08:40;;;;;;;;;;;;;;;21.96;49.02;101514.13;7287952;19;152193;-69
2022/07/28 04:11:07;;;;;;;;;;;;;;;22.00;48.94;101512.38;7294750;19;152692;-69
2022/07/28 04:13:35;;;;;;;;;;;;;;;21.88;49.43;101504.38;7289059;19;151598;-69
2022/07/28 04:16:04;;;;;;;;;;;;;;;21.90;49.39;101506.84;7289179;19;152054;-69
2022/07/28 04:18:31;;;;;;;;;;;;;;;21.89;49.57;101508.03;7286637;19;153384;-69
2022/07/28 04:20:58;;;;;;;;;;;;;;;21.90;49.59;101506.84;7288212;19;152025;-69
2022/07/28 04:23:25;;;;;;;;;;;;;;;21.88;49.83;101506.34;7286304;19;152856;-70
2022/07/28 04:25:52;;;;;;;;;;;;;;;21.97;49.75;101510.19;7285175;19;152831;-69
2022/07/28 04:28:19;;;;;;;;;;;;;;;21.88;49.54;101507.19;7287400;19;154042;-69
2022/07/28 04:30:46;;;;;;;;;;;;;;;21.89;49.63;101508.88;7288983;19;153372;-69
2022/07/28 04:33:13;;;;;;;;;;;;;;;21.87;49.67;101502.69;7293666;19;153827;-69
2022/07/28 04:35:40;;;;;;;;;;;;;;;21.88;49.72;101506.34;7284328;19;152623;-69
2022/07/28 04:38:07;;;;;;;;;;;;;;;21.90;50.07;101504.03;7283606;19;154650;-68
2022/07/28 04:40:34;;;;;;;;;;;;;;;21.86;49.84;101511.41;7287988;19;152107;-69
2022/07/28 04:43:02;;;;;;;;;;;;;;;21.95;49.59;101504.84;7287284;19;152639;-69
2022/07/28 04:45:29;;;;;;;;;;;;;;;21.93;49.88;101498.69;7284579;19;153336;-69
2022/07/28 04:48:00;;;;;;;;;;;;;;;21.93;50.11;101511.94;7287716;19;152125;-69
2022/07/28 04:50:30;;;;;;;;;;;;;;;21.89;50.03;101502.41;7285038;19;153955;-70
2022/07/28 04:52:57;;;;;;;;;;;;;;;21.90;50.25;101506.84;7281531;19;154100;-69
2022/07/28 04:55:25;;;;;;;;;;;;;;;21.91;49.84;101495.31;7294688;19;152571;-69
2022/07/28 04:57:59;;;;;;;;;;;;;;;21.93;49.97;101501.50;7286820;19;154319;-68
2022/07/28 05:00:33;;;;;;;;;;;;;;;21.93;49.91;101506.31;7287301;19;152291;-69
2022/07/28 05:03:01;;;;;;;;;;;;;;;21.87;50.16;101501.84;7284262;19;153407;-69
2022/07/28 05:05:28;;;;;;;;;;;;;;;21.92;49.91;101502.63;7280329;19;153625;-69
2022/07/28 05:08:00;;;;;;;;;;;;;;;21.92;50.27;101507.41;7284171;19;152457;-68
2022/07/28 05:10:29;;;;;;;;;;;;;;;21.95;50.27;101501.19;7286285;19;153803;-70
2022/07/28 05:12:56;;;;;;;;;;;;;;;21.90;50.08;101509.66;7286195;19;153832;-70
2022/07/28 05:15:23;;;;;;;;;;;;;;;21.87;50.08;101496.22;7287546;19;152759;-69
2022/07/28 05:17:50;;;;;;;;;;;;;;;21.83;50.30;101498.81;7294925;19;152638;-70
2022/07/28 05:20:24;;;;;;;;;;;;;;;21.91;50.16;101500.94;7282395;19;152781;-69
2022/07/28 05:22:52;;;;;;;;;;;;;;;21.84;50.06;101503.31;7286305;19;153321;-69
2022/07/28 05:25:20;;;;;;;;;;;;;;;21.91;50.05;101506.56;7282661;19;153592;-70
2022/07/28 05:27:48;;;;;;;;;;;;;;;21.91;50.24;101506.56;7283785;19;152906;-70
2022/07/28 05:30:15;;;;;;;;;;;;;;;21.93;50.06;101509.13;7286375;19;152652;-69
2022/07/28 05:32:44;;;;;;;;;;;;;;;21.97;50.27;101513.00;7286148;19;153998;-69
2022/07/28 05:35:11;;;;;;;;;;;;;;;21.94;49.90;101508.78;7281417;19;152668;-69
2022/07/28 05:37:38;;;;;;;;;;;;;;;21.89;50.07;101499.59;7286187;19;152452;-69
2022/07/28 05:40:09;;;;;;;;;;;;;;;21.93;50.40;101509.13;7288279;19;152127;-70
2022/07/28 05:42:36;;;;;;;;;;;;;;;21.94;50.27;101508.78;7286188;19;152635;-69
2022/07/28 05:45:04;;;;;;;;;;;;;;;21.86;50.52;101506.63;7284366;19;153602;-69
2022/07/28 05:47:42;;;;;;;;;;;;;;;21.89;50.63;101508.88;7286535;19;151743;-69
2022/07/28 05:50:09;;;;;;;;;;;;;;;21.94;50.27;101513.59;7284317;19;152633;-69
2022/07/28 05:52:36;;;;;;;;;;;;;;;21.93;50.04;101509.13;7280207;19;154535;-69
2022/07/28 05:55:04;;;;;;;;;;;;;;;21.87;50.55;101508.31;7286224;19;152180;-69
2022/07/28 05:57:30;;;;;;;;;;;;;;;21.84;50.12;101511.75;7286200;19;152134;-68
2022/07/28 05:59:57;;;;;;;;;;;;;;;21.90;49.88;101506.84;7292020;19;153937;-69
2022/07/28 06:02:24;;;;;;;;;;;;;;;21.85;50.54;101506.97;7284213;19;152898;-69
2022/07/28 06:04:51;;;;;;;;;;;;;;;21.82;50.45;101504.72;7278440;19;153121;-68
2022/07/28 06:07:18;;;;;;;;;;;;;;;21.81;50.52;101505.88;7285094;19;152922;-70
2022/07/28 06:09:44;;;;;;;;;;;;;;;21.77;50.22;101500.03;7285486;19;153175;-69
2022/07/28 06:12:11;;;;;;;;;;;;;;;21.81;50.10;101500.25;7285369;19;153732;-70
2022/07/28 06:14:38;;;;;;;;;;;;;;;21.83;50.57;101506.41;7285598;19;152170;-69
2022/07/28 06:17:05;;;;;;;;;;;;;;;21.82;50.03;101505.56;7285900;19;152677;-69
2022/07/28 06:19:32;;;;;;;;;;;;;;;21.83;50.32;101501.63;7278278;19;153756;-69
2022/07/28 06:21:58;;;;;;;;;;;;;;;21.91;49.77;101509.38;7291548;19;153186;-69
2022/07/28 06:24:26;;;;;;;;;;;;;;;21.85;50.13;101504.16;7283092;19;153331;-69
2022/07/28 06:26:53;;;;;;;;;;;;;;;21.87;49.86;101499.03;7282151;19;152456;-70
2022/07/28 06:29:23;;;;;;;;;;;;;;;21.86;50.18;101506.63;7284373;19;152845;-69
2022/07/28 06:31:50;;;;;;;;;;;;;;;21.89;49.62;101506.06;7284039;19;153124;-69
2022/07/28 06:34:17;;;;;;;;;;;;;;;21.85;50.13;101507.75;7281346;19;152190;-69
2022/07/28 06:36:48;;;;;;;;;;;;;;;21.85;49.87;101512.59;7284671;19;154549;-69
2022/07/28 06:39:15;;;;;;;;;;;;;;;21.89;49.59;101513.66;7283210;19;154399;-68
2022/07/28 06:41:43;;;;;;;;;;;;;;;21.91;49.65;101519.78;7284198;19;152032;-69
2022/07/28 06:44:10;;;;;;;;;;;;;;;21.92;49.53;101516.69;7291251;19;152752;-70
2022/07/28 06:46:38;;;;;;;;;;;;;;;21.87;49.67;101515.91;7280945;19;152358;-70
2022/07/28 06:49:04;;;;;;;;;;;;;;;21.84;49.59;101508.09;7281932;19;153256;-69
2022/07/28 06:51:31;;;;;;;;;;;;;;;21.86;49.75;101514.22;7280646;19;153390;-70
2022/07/28 06:54:03;;;;;;;;;;;;;;;21.91;49.35;101517.81;7282682;19;151848;-69
2022/07/28 06:56:36;;;;;;;;;;;;;;;21.85;49.58;101516.22;7283266;19;152506;-69
2022/07/28 06:59:03;;;;;;;;;;;;;;;21.86;49.13;101517.03;7281431;19;152820;-70
2022/07/28 07:01:30;;;;;;;;;;;;;;;21.89;48.90;101513.66;7284527;19;152618;-69
2022/07/28 07:03:57;;;;;;;;;;;;;;;21.86;49.06;101514.22;7279074;19;152966;-69
2022/07/28 07:06:24;;;;;;;;;;;;;;;21.85;48.82;101510.59;7285246;19;152417;-69
2022/07/28 07:08:51;;;;;;;;;;;;;;;21.82;49.23;101513.16;7282929;19;151775;-69
2022/07/28 07:11:18;;;;;;;;;;;;;;;21.85;48.81;101523.84;7282385;19;153405;-69
2022/07/28 07:13:44;;;;;;;;;;;;;;;21.92;48.27;101524.28;7280655;19;152208;-69
2022/07/28 07:16:11;;;;;;;;;;;;;;;21.88;48.54;101520.41;7283447;19;153388;-69
2022/07/28 07:18:38;;;;;;;;;;;;;;;21.86;48.61;101523.50;7280169;19;153369;-69
2022/07/28 07:21:05;;;;;;;;;;;;;;;21.89;48.39;101522.09;7281361;19;152499;-69
2022/07/28 07:23:32;;;;;;;;;;;;;;;21.85;48.43;101519.03;7282190;19;152949;-69
2022/07/28 07:25:58;;;;;;;;;;;;;;;21.88;48.59;101520.41;7281438;19;154314;-69
2022/07/28 07:28:25;;;;;;;;;;;;;;;21.87;48.17;101518.72;7290392;19;152536;-69
2022/07/28 07:30:52;;;;;;;;;;;;;;;21.83;48.26;101520.47;7285653;19;153192;-69
2022/07/28 07:33:20;;;;;;;;;;;;;;;21.84;48.14;101517.38;7297767;19;152206;-69
2022/07/28 07:35:47;;;;;;;;;;;;;;;21.84;48.06;101511.75;7295232;19;152781;-69
2022/07/28 07:38:14;;;;;;;;;;;;;;;21.89;47.93;101508.88;7296136;19;152864;-69
2022/07/28 07:40:41;;;;;;;;;;;;;;;21.89;48.25;101496.78;7297784;19;152355;-69
2022/07/28 07:43:08;;;;;;;;;;;;;;;21.89;47.83;101505.22;7295482;19;152860;-68
2022/07/28 07:45:35;;;;;;;;;;;;;;;21.87;47.96;101502.69;7293857;19;154623;-70
2022/07/28 07:48:04;;;;;;;;;;;;;;;21.85;47.75;101501.34;7305168;19;153224;-68
2022/07/28 07:50:36;;;;;;;;;;;;;;;21.84;48.02;101497.69;7292919;19;153109;-69
2022/07/28 07:53:03;;;;;;;;;;;;;;;21.87;47.79;101487.78;7296025;19;152066;-68
2022/07/28 07:55:30;;;;;;;;;;;;;;;21.86;47.57;101491.72;7295496;19;153420;-70
2022/07/28 07:58:04;;;;;;;;;;;;;;;21.96;47.59;101500.91;7295562;19;152664;-69
2022/07/28 08:00:40;;;;;;;;;;;;;;;21.88;47.25;101497.91;7294646;19;152816;-69
2022/07/28 08:03:09;;;;;;;;;;;;;;;21.86;47.21;101502.97;7295382;19;152479;-68
2022/07/28 08:05:39;;;;;;;;;;;;;;;21.94;46.88;101497.53;7290631;19;152833;-69
2022/07/28 08:08:09;;;;;;;;;;;;;;;21.89;46.80;101497.59;7295557;19;152685;-69
2022/07/28 08:10:37;;;;;;;;;;;;;;;21.91;46.92;101491.66;7303009;19;152380;-69
2022/07/28 08:13:05;;;;;;;;;;;;;;;21.94;46.77;101494.72;7295734;19;152150;-69
2022/07/28 08:15:33;;;;;;;;;;;;;;;21.99;46.57;101500.28;7292893;19;152552;-69
2022/07/28 08:18:04;;;;;;;;;;;;;;;21.94;46.98;101497.53;7292697;19;152941;-70
2022/07/28 08:20:34;;;;;;;;;;;;;;;21.94;46.79;101500.34;7293529;19;152070;-69
2022/07/28 08:23:01;;;;;;;;;;;;;;;21.94;46.62;101499.53;7295832;19;154357;-68
2022/07/28 08:25:28;;;;;;;;;;;;;;;21.93;47.08;101497.88;7294714;19;153419;-69
2022/07/28 08:28:03;;;;;;;;;;;;;;;21.93;47.02;101506.31;7294748;19;152645;-70
2022/07/28 08:30:32;;;;;;;;;;;;;;;21.92;46.36;101504.59;7294578;19;153314;-69
2022/07/28 08:33:01;;;;;;;;;;;;;;;21.88;46.55;101495.94;7301919;19;154329;-69
2022/07/28 08:35:28;;;;;;;;;;;;;;;21.88;46.40;101497.91;7289991;19;153458;-69
2022/07/28 08:38:07;;;;;;;;;;;;;;;21.90;46.35;101498.41;7294469;19;152681;-69
2022/07/28 08:40:35;;;;;;;;;;;;;;;21.89;46.36;101499.59;7294450;19;154046;-69
2022/07/28 08:43:11;;;;;;;;;;;;;;;21.92;46.29;101498.97;7291007;19;152668;-69
2022/07/28 08:45:41;;;;;;;;;;;;;;;21.92;46.50;101510.22;7286005;19;153213;-69
2022/07/28 08:48:11;;;;;;;;;;;;;;;21.89;45.99;101497.59;7288254;19;154299;-69
2022/07/28 08:50:44;;;;;;;;;;;;;;;21.88;45.88;101500.72;7284559;19;152959;-69
2022/07/28 08:53:19;;;;;;;;;;;;;;;21.92;45.85;101496.16;7286168;19;152424;-69
2022/07/28 08:55:47;;;;;;;;;;;;;;;21.94;46.02;101488.28;7296299;19;151820;-69
2022/07/28 08:58:17;;;;;;;;;;;;;;;21.97;45.89;101494.13;7285153;19;153950;-69
2022/07/28 09:00:46;;;;;;;;;;;;;;;22.00;45.77;101492.66;7287209;19;151735;-69
2022/07/28 09:03:13;;;;;;;;;;;;;;;21.97;46.03;101484.84;7286423;19;152980;-70
2022/07/28 09:05:42;;;;;;;;;;;;;;;22.00;45.70;101495.50;7283864;19;153304;-70
2022/07/28 09:08:11;;;;;;;;;;;;;;;22.02;45.39;101502.50;7286833;19;153024;-69
2022/07/28 09:10:40;;;;;;;;;;;;;;;21.99;45.22;101499.44;7286419;19;154655;-70
2022/07/28 09:13:08;;;;;;;;;;;;;;;21.96;45.10;101497.25;7285668;19;154554;-69
2022/07/28 09:15:39;;;;;;;;;;;;;;;21.94;45.19;101491.91;7287581;19;152407;-70
2022/07/28 09:18:07;;;;;;;;;;;;;;;21.92;45.16;101485.72;7291546;19;153464;-69
2022/07/28 09:20:36;;;;;;;;;;;;;;;21.89;45.00;101482.69;7282407;19;152324;-69
2022/07/28 09:23:05;;;;;;;;;;;;;;;21.90;44.36;101487.16;7286919;19;151881;-69
2022/07/28 09:26:04;;;;;;;;;;;;;;;21.90;44.43;101484.34;7285598;19;155853;-69
2022/07/28 09:28:54;;;;;;;;;;;;;;;21.93;43.93;101492.22;7287146;19;152460;-70
2022/07/28 09:31:22;;;;;;;;;;;;;;;21.91;43.82;101486.03;7287583;19;152958;-68
2022/07/28 09:34:06;;;;;;;;;;;;;;;21.90;43.80;101484.34;7281888;19;152500;-69
2022/07/28 09:36:37;;;;;;;;;;;;;;;21.94;43.63;101488.28;7286353;19;151661;-69
2022/07/28 09:39:04;;;;;;;;;;;;;;;21.94;43.61;101485.47;7283820;19;153405;-69
2022/07/28 09:41:49;;;;;;;;;;;;;;;21.89;43.51;101482.69;7292420;19;152871;-69
2022/07/28 09:44:16;;;;;;;;;;;;;;;21.91;43.49;101486.03;7285845;19;152268;-69
2022/07/28 09:46:43;;;;;;;;;;;;;;;21.91;43.71;101488.84;7284308;19;152586;-69
2022/07/28 09:49:11;;;;;;;;;;;;;;;21.90;43.62;101484.34;7283769;19;152172;-69
2022/07/28 09:51:38;;;;;;;;;;;;;;;21.98;43.14;101489.34;7283511;19;152587;-69
2022/07/28 09:54:07;;;;;;;;;;;;;;;21.93;43.69;101479.00;7283303;19;153228;-69
2022/07/28 09:56:34;;;;;;;;;;;;;;;21.92;43.91;101482.09;7286202;19;152082;-69
2022/07/28 09:59:02;;;;;;;;;;;;;;;21.91;44.22;101477.59;7286259;19;153113;-69
2022/07/28 10:01:29;;;;;;;;;;;;;;;21.94;43.97;101471.41;7292270;19;154155;-69
2022/07/28 10:04:02;;;;;;;;;;;;;;;21.96;43.86;101471.91;7282547;19;153749;-69
2022/07/28 10:06:31;;;;;;;;;;;;;;;21.99;44.06;101479.72;7283068;19;154491;-69
2022/07/28 10:08:59;;;;;;;;;;;;;;;21.99;43.97;101472.13;7283783;19;152132;-69
2022/07/28 10:11:27;;;;;;;;;;;;;;;22.02;44.14;101474.34;7285921;19;153734;-69
2022/07/28 10:13:56;;;;;;;;;;;;;;;22.04;44.46;101485.28;7282504;19;152170;-69
2022/07/28 10:16:27;;;;;;;;;;;;;;;22.02;45.23;101477.16;7285548;19;152226;-69
2022/07/28 10:18:55;;;;;;;;;;;;;;;22.05;45.15;101464.44;7283009;19;153128;-69
2022/07/28 10:21:22;;;;;;;;;;;;;;;22.07;44.94;101477.09;7283878;19;155562;-69
2022/07/28 10:23:52;;;;;;;;;;;;;;;22.11;45.02;101460.44;7289729;19;152602;-69
2022/07/28 10:26:22;;;;;;;;;;;;;;;22.09;44.90;101468.31;7282986;19;154115;-69
2022/07/28 10:28:50;;;;;;;;;;;;;;;22.11;44.87;101463.25;7284260;19;152777;-69
2022/07/28 10:31:22;;;;;;;;;;;;;;;22.11;44.77;101466.88;7285312;19;153912;-70
2022/07/28 10:33:52;;;;;;;;;;;;;;;22.12;45.16;101468.53;7279907;19;153058;-68
2022/07/28 10:36:22;;;;;;;;;;;;;;;22.15;45.02;101461.47;7285036;19;152382;-69
2022/07/28 10:38:53;;;;;;;;;;;;;;;22.14;45.04;101460.63;7284453;19;152555;-69
2022/07/28 10:41:23;;;;;;;;;;;;;;;22.15;44.93;101465.13;7283662;19;154069;-70
2022/07/28 10:43:55;;;;;;;;;;;;;;;22.15;45.00;101470.75;7284567;19;151909;-69
2022/07/28 10:46:24;;;;;;;;;;;;;;;22.17;44.85;101465.66;7289842;19;153588;-69
2022/07/28 10:48:51;;;;;;;;;;;;;;;22.18;44.64;101469.28;7282761;19;152119;-69
2022/07/28 10:51:19;;;;;;;;;;;;;;;22.23;44.69;101463.59;7283606;19;153375;-69
2022/07/28 10:54:06;;;;;;;;;;;;;;;22.18;44.72;101466.47;7283621;19;154076;-70
2022/07/28 10:56:33;;;;;;;;;;;;;;;22.21;45.57;101460.25;7285601;19;152864;-70
2022/07/28 10:59:09;;;;;;;;;;;;;;;22.23;45.38;101457.97;7284167;19;153288;-70
2022/07/28 11:01:38;;;;;;;;;;;;;;;22.26;45.02;101462.16;7282986;19;153585;-69
2022/07/28 11:04:33;;;;;;;;;;;;;;;22.30;45.05;101458.41;7279264;19;154564;-69
2022/07/28 11:07:10;;;;;;;;;;;;;;;22.30;45.10;101463.22;7279634;19;152615;-70
2022/07/28 11:09:37;;;;;;;;;;;;;;;22.32;44.96;101461.75;7286799;19;154588;-69
2022/07/28 11:12:04;;;;;;;;;;;;;;;22.32;44.77;101458.09;7283617;19;152133;-69
2022/07/28 11:14:36;;;;;;;;;;;;;;;22.32;45.06;101463.72;7282329;19;152653;-69
2022/07/28 11:17:04;;;;;;;;;;;;;;;22.33;44.49;101469.03;7284135;19;152315;-69
2022/07/28 11:19:42;;;;;;;;;;;;;;;22.32;44.74;101467.38;7281548;19;153617;-69
2022/07/28 11:22:29;;;;;;;;;;;;;;;22.32;44.96;101463.72;7281271;19;152774;-69
2022/07/28 11:25:01;;;;;;;;;;;;;;;22.33;44.47;101460.59;7282037;19;151756;-69
2022/07/28 11:27:50;;;;;;;;;;;;;;;22.34;44.89;101465.09;7282014;19;153190;-69
2022/07/28 11:30:24;;;;;;;;;;;;;;;22.32;44.49;101473.00;7280549;19;155056;-69
2022/07/28 11:32:54;;;;;;;;;;;;;;;22.33;44.90;101469.03;7291718;19;153892;-70
2022/07/28 11:35:22;;;;;;;;;;;;;;;22.36;44.91;101467.59;7278773;19;154137;-69
2022/07/28 11:38:03;;;;;;;;;;;;;;;22.35;45.04;101465.94;7283180;19;152707;-69
2022/07/28 11:40:42;;;;;;;;;;;;;;;22.37;45.34;101466.44;7281132;19;152222;-70
2022/07/28 11:43:25;;;;;;;;;;;;;;;22.40;45.60;101468.63;7281213;19;153040;-69
2022/07/28 11:46:03;;;;;;;;;;;;;;;22.41;45.37;101461.88;7284115;19;152313;-70
2022/07/28 11:48:37;;;;;;;;;;;;;;;22.42;44.96;101458.75;7277784;19;153854;-69
2022/07/28 11:51:04;;;;;;;;;;;;;;;22.43;45.23;101456.78;7280055;19;153948;-69
2022/07/28 11:53:37;;;;;;;;;;;;;;;22.47;45.03;101460.66;7280275;19;152259;-69
2022/07/28 11:56:07;;;;;;;;;;;;;;;22.48;45.23;101453.88;7290117;19;154117;-70
2022/07/28 11:58:34;;;;;;;;;;;;;;;22.50;45.39;101458.03;7282058;19;152388;-69
2022/07/28 12:01:11;;;;;;;;;;;;;;;22.51;45.43;101454.06;7283142;19;152008;-68
2022/07/28 12:03:44;;;;;;;;;;;;;;;22.52;45.01;101452.94;7275918;19;154454;-68
2022/07/28 12:06:15;;;;;;;;;;;;;;;22.53;44.97;101448.97;7280423;19;153740;-69
2022/07/28 12:09:01;;;;;;;;;;;;;;;22.55;45.19;101443.88;7278973;19;152100;-69
2022/07/28 12:11:31;;;;;;;;;;;;;;;22.54;45.06;101452.63;7281160;19;152635;-70
2022/07/28 12:13:59;;;;;;;;;;;;;;;22.56;45.33;101451.16;7280235;19;151758;-69
2022/07/28 12:16:27;;;;;;;;;;;;;;;22.58;45.28;101459.28;7288466;19;152670;-69
2022/07/28 12:18:54;;;;;;;;;;;;;;;22.57;45.33;101446.38;7282565;19;152949;-69
2022/07/28 12:21:39;;;;;;;;;;;;;;;22.56;45.64;101456.81;7288318;19;152006;-69
2022/07/28 12:24:16;;;;;;;;;;;;;;;22.54;45.47;101453.44;7285796;19;152206;-69
2022/07/28 12:26:45;;;;;;;;;;;;;;;22.53;45.42;101445.34;7288474;19;152035;-69
2022/07/28 12:29:15;;;;;;;;;;;;;;;22.52;45.46;101447.31;7288422;19;152818;-69
2022/07/28 12:31:51;;;;;;;;;;;;;;;22.56;45.43;101444.69;7287429;19;154672;-68
2022/07/28 12:34:19;;;;;;;;;;;;;;;22.53;45.71;101446.13;7285357;19;152538;-69
2022/07/28 12:36:55;;;;;;;;;;;;;;;22.54;45.90;101438.53;7287017;19;152714;-69
2022/07/28 12:39:24;;;;;;;;;;;;;;;22.57;45.63;101441.59;7292225;19;152783;-68